createdAt,value
2022-11-14T00:00:04.848Z,73
2022-11-14T00:02:34.308Z,77
2022-11-14T00:05:07.328Z,77
2022-11-14T00:10:16.298Z,76
2022-11-14T00:12:45.087Z,76
2022-11-14T00:15:17.523Z,75
2022-11-14T00:17:46.969Z,77
2022-11-14T00:20:17.066Z,77
2022-11-14T00:22:48.007Z,71
2022-11-14T00:25:18.995Z,68
2022-11-14T00:27:50.878Z,68
2022-11-14T00:30:21.424Z,73
2022-11-14T00:32:52.669Z,76
2022-11-14T00:35:23.887Z,69
2022-11-14T00:37:53.838Z,72
2022-11-14T00:40:24.152Z,79
2022-11-14T00:42:55.766Z,79
2022-11-14T00:45:26.342Z,76
2022-11-14T00:47:55.620Z,78
2022-11-14T00:50:28.427Z,78
2022-11-14T00:52:59.650Z,77
2022-11-14T00:55:30.472Z,80
2022-11-14T00:58:03.713Z,75
2022-11-14T01:00:35.969Z,76
2022-11-14T01:03:06.585Z,77
2022-11-14T01:05:37.279Z,78
2022-11-14T01:08:19.998Z,84
2022-11-14T01:10:52.546Z,84
2022-11-14T01:13:23.281Z,84
2022-11-14T01:15:53.480Z,89
2022-11-14T01:18:24.241Z,84
2022-11-14T01:20:55.001Z,80
2022-11-14T01:23:25.582Z,84
2022-11-14T01:25:56.570Z,84
2022-11-14T01:28:27.722Z,78
2022-11-14T01:30:58.133Z,80
2022-11-14T01:33:28.167Z,88
2022-11-14T01:35:57.155Z,79
2022-11-14T01:38:28.791Z,81
2022-11-14T01:41:01.744Z,88
2022-11-14T01:43:32.578Z,82
2022-11-14T01:46:08.516Z,78
2022-11-14T01:48:50.608Z,72
2022-11-14T01:51:23.827Z,74
2022-11-14T01:53:54.953Z,78
2022-11-14T01:56:37.995Z,80
2022-11-14T01:59:25.190Z,78
2022-11-14T02:02:00.194Z,75
2022-11-14T02:04:30.149Z,76
2022-11-14T02:07:03.194Z,72
2022-11-14T02:09:34.546Z,76
2022-11-14T02:12:05.379Z,73
2022-11-14T02:14:36.186Z,80
2022-11-14T02:17:28.268Z,76
2022-11-14T02:19:38.364Z,80
2022-11-14T02:22:08.396Z,77
2022-11-14T02:24:39.368Z,76
2022-11-14T02:27:10.097Z,82
2022-11-14T02:29:40.903Z,76
2022-11-14T02:32:12.237Z,78
2022-11-14T02:34:44.731Z,74
2022-11-14T02:37:16.204Z,80
2022-11-14T02:39:47.581Z,78
2022-11-14T02:42:18.391Z,79
2022-11-14T02:44:49.849Z,77
2022-11-14T02:47:21.046Z,76
2022-11-14T02:49:51.398Z,75
2022-11-14T02:52:22.232Z,76
2022-11-14T02:54:54.707Z,76
2022-11-14T02:57:25.104Z,80
2022-11-14T02:59:58.646Z,78
2022-11-14T03:02:31.946Z,79
2022-11-14T03:05:03.186Z,77
2022-11-14T03:07:32.581Z,78
2022-11-14T03:10:03.416Z,82
2022-11-14T03:12:35.896Z,74
2022-11-14T03:15:07.187Z,77
2022-11-14T03:17:36.544Z,80
2022-11-14T03:20:08.354Z,86
2022-11-14T03:22:39.172Z,75
2022-11-14T03:25:09.647Z,81
2022-11-14T03:27:40.773Z,78
2022-11-14T03:30:14.608Z,76
2022-11-14T03:32:45.348Z,76
2022-11-14T03:35:14.902Z,75
2022-11-14T03:37:45.823Z,83
2022-11-14T03:40:16.902Z,82
2022-11-14T03:42:47.964Z,81
2022-11-14T03:45:18.570Z,78
2022-11-14T03:47:49.764Z,81
2022-11-14T03:50:21.938Z,80
2022-11-14T03:52:53.578Z,82
2022-11-14T03:55:25.339Z,79
2022-11-14T03:57:56.620Z,80
2022-11-14T04:00:27.365Z,78
2022-11-14T04:02:59.622Z,84
2022-11-14T04:05:31.305Z,80
2022-11-14T04:08:02.060Z,80
2022-11-14T04:10:32.847Z,79
2022-11-14T04:13:05.121Z,88
2022-11-14T04:15:36.040Z,77
2022-11-14T04:18:06.975Z,82
2022-11-14T04:20:38.083Z,73
2022-11-14T04:23:09.761Z,79
2022-11-14T04:25:42.046Z,80
2022-11-14T04:28:13.651Z,76
2022-11-14T04:30:44.097Z,79
2022-11-14T04:33:14.681Z,76
2022-11-14T04:35:46.883Z,82
2022-11-14T04:38:18.471Z,84
2022-11-14T04:40:49.895Z,77
2022-11-14T04:43:20.817Z,74
2022-11-14T04:45:54.373Z,82
2022-11-14T04:48:25.721Z,83
2022-11-14T04:50:56.549Z,89
2022-11-14T04:53:27.474Z,79
2022-11-14T04:56:01.545Z,77
2022-11-14T04:58:32.549Z,79
2022-11-14T05:01:03.240Z,77
2022-11-14T05:03:33.786Z,74
2022-11-14T05:06:04.512Z,74
2022-11-14T05:08:35.196Z,81
2022-11-14T05:11:05.785Z,78
2022-11-14T05:13:35.973Z,77
2022-11-14T05:16:08.079Z,83
2022-11-14T05:18:42.924Z,76
2022-11-14T05:21:10.735Z,76
2022-11-14T05:23:42.217Z,78
2022-11-14T05:26:13.573Z,83
2022-11-14T05:28:43.883Z,81
2022-11-14T05:31:14.951Z,86
2022-11-14T05:33:45.143Z,75
2022-11-14T05:36:16.374Z,82
2022-11-14T05:38:47.884Z,85
2022-11-14T05:41:17.752Z,78
2022-11-14T05:43:48.819Z,75
2022-11-14T05:46:17.880Z,80
2022-11-14T05:48:48.654Z,82
2022-11-14T05:51:19.886Z,88
2022-11-14T05:53:51.257Z,96
2022-11-14T05:56:21.717Z,92
2022-11-14T05:58:52.692Z,91
2022-11-14T06:01:24.046Z,91
2022-11-14T06:03:54.949Z,97
2022-11-14T06:06:26.202Z,88
2022-11-14T06:08:56.524Z,85
2022-11-14T06:11:27.208Z,92
2022-11-14T06:13:57.373Z,80
2022-11-14T06:16:28.118Z,82
2022-11-14T06:18:59.309Z,91
2022-11-14T06:21:30.160Z,88
2022-11-14T06:24:00.962Z,82
2022-11-14T06:26:31.343Z,87
2022-11-14T06:29:02.298Z,83
2022-11-14T06:31:33.568Z,80
2022-11-14T06:34:03.926Z,81
2022-11-14T06:36:35.121Z,84
2022-11-14T06:39:06.901Z,84
2022-11-14T06:41:37.500Z,76
2022-11-14T06:44:07.810Z,84
2022-11-14T06:46:38.603Z,84
2022-11-14T06:49:09.381Z,76
2022-11-14T06:51:39.688Z,81
2022-11-14T06:54:12.428Z,94
2022-11-14T06:56:43.751Z,84
2022-11-14T06:59:15.514Z,86
2022-11-14T07:01:45.809Z,83
2022-11-14T07:04:16.300Z,83
2022-11-14T07:06:47.140Z,84
2022-11-14T07:09:17.721Z,88
2022-11-14T07:11:48.587Z,89
2022-11-14T07:14:19.585Z,83
2022-11-14T07:16:50.531Z,90
2022-11-14T07:19:21.341Z,89
2022-11-14T07:21:52.241Z,92
2022-11-14T07:24:22.542Z,84
2022-11-14T07:26:53.022Z,88
2022-11-14T07:29:24.088Z,88
2022-11-14T07:31:54.344Z,86
2022-11-14T07:34:25.619Z,86
2022-11-14T07:36:57.208Z,83
2022-11-14T07:39:28.617Z,91
2022-11-14T07:41:59.737Z,97
2022-11-14T07:44:30.095Z,92
2022-11-14T07:47:02.033Z,92
2022-11-14T07:49:32.745Z,93
2022-11-14T07:52:04.073Z,93
2022-11-14T07:54:35.632Z,127
2022-11-14T07:57:07.624Z,119
2022-11-14T07:59:38.084Z,122
2022-11-14T08:02:08.513Z,105
2022-11-14T08:04:39.340Z,98
2022-11-14T08:07:09.863Z,91
2022-11-14T08:09:40.916Z,121
2022-11-14T08:12:14.166Z,93
2022-11-14T08:14:45.045Z,92
2022-11-14T08:17:15.470Z,92
2022-11-14T08:19:46.979Z,90
2022-11-14T08:22:17.944Z,91
2022-11-14T08:24:48.462Z,95
2022-11-14T08:27:19.079Z,90
2022-11-14T08:29:49.579Z,90
2022-11-14T08:32:20.928Z,81
2022-11-14T08:34:51.311Z,84
2022-11-14T08:37:22.111Z,88
2022-11-14T08:39:52.877Z,89
2022-11-14T08:42:24.703Z,94
2022-11-14T08:44:56.544Z,112
2022-11-14T08:47:28.667Z,88
2022-11-14T08:49:59.859Z,87
2022-11-14T08:52:32.256Z,82
2022-11-14T08:55:03.029Z,90
2022-11-14T08:57:33.620Z,82
2022-11-14T09:00:05.005Z,87
2022-11-14T09:02:35.732Z,88
2022-11-14T09:05:05.745Z,86
2022-11-14T09:07:36.346Z,87
2022-11-14T09:10:08.203Z,84
2022-11-14T09:12:39.500Z,84
2022-11-14T09:15:11.959Z,90
2022-11-14T09:17:43.511Z,81
2022-11-14T09:20:14.719Z,85
2022-11-14T09:22:45.766Z,81
2022-11-14T09:25:16.634Z,84
2022-11-14T09:27:47.538Z,82
2022-11-14T09:30:17.907Z,85
2022-11-14T09:32:48.852Z,100
2022-11-14T09:35:19.627Z,81
2022-11-14T09:37:51.874Z,84
2022-11-14T09:40:22.473Z,84
2022-11-14T09:42:53.861Z,83
2022-11-14T09:45:24.971Z,91
2022-11-14T09:47:56.768Z,100
2022-11-14T09:50:27.218Z,100
2022-11-14T09:52:59.636Z,109
2022-11-14T09:55:37.019Z,97
2022-11-14T09:58:06.257Z,97
2022-11-14T10:00:40.193Z,109
2022-11-14T10:03:11.893Z,100
2022-11-14T10:05:44.920Z,93
2022-11-14T10:08:17.138Z,88
2022-11-14T10:10:50.231Z,96
2022-11-14T10:13:23.072Z,105
2022-11-14T10:15:53.933Z,105
2022-11-14T10:18:24.461Z,90
2022-11-14T10:20:55.084Z,81
2022-11-14T10:23:25.834Z,85
2022-11-14T10:25:55.410Z,82
2022-11-14T10:28:28.776Z,85
2022-11-14T10:30:59.775Z,82
2022-11-14T10:33:30.368Z,95
2022-11-14T10:36:03.856Z,84
2022-11-14T10:38:34.699Z,82
2022-11-14T10:41:05.374Z,93
2022-11-14T10:43:35.188Z,82
2022-11-14T10:46:06.265Z,80
2022-11-14T10:48:36.600Z,82
2022-11-14T10:51:06.881Z,81
2022-11-14T10:53:37.704Z,74
2022-11-14T10:56:08.058Z,77
2022-11-14T10:58:48.187Z,84
2022-11-14T11:01:10.810Z,80
2022-11-14T11:03:41.215Z,72
2022-11-14T11:06:11.844Z,74
2022-11-14T11:08:43.539Z,78
2022-11-14T11:11:13.730Z,70
2022-11-14T11:13:44.806Z,74
2022-11-14T11:16:15.254Z,68
2022-11-14T11:18:50.609Z,64
2022-11-14T11:21:17.303Z,64
2022-11-14T11:23:47.867Z,66
2022-11-14T11:26:18.528Z,64
2022-11-14T11:28:49.218Z,63
2022-11-14T11:31:19.877Z,56
2022-11-14T11:33:50.302Z,60
2022-11-14T11:36:22.103Z,56
2022-11-14T11:38:53.133Z,56
2022-11-14T11:41:52.984Z,68
2022-11-14T11:43:56.979Z,57
2022-11-14T11:46:26.241Z,57
2022-11-14T11:48:58.880Z,60
2022-11-14T11:51:30.861Z,52
2022-11-14T11:54:02.253Z,56
2022-11-14T11:56:32.493Z,59
2022-11-14T11:59:03.066Z,56
2022-11-14T12:01:33.803Z,54
2022-11-14T12:04:06.670Z,64
2022-11-14T12:06:37.958Z,54
2022-11-14T12:09:09.130Z,55
2022-11-14T12:11:40.559Z,52
2022-11-14T12:14:10.832Z,49
2022-11-14T12:16:41.800Z,47
2022-11-14T12:19:13.806Z,61
2022-11-14T12:21:46.866Z,52
2022-11-14T12:24:17.897Z,51
2022-11-14T12:26:48.307Z,51
2022-11-14T12:29:22.484Z,49
2022-11-14T12:31:49.790Z,48
2022-11-14T12:34:20.000Z,49
2022-11-14T12:36:50.602Z,46
2022-11-14T12:39:21.470Z,45
2022-11-14T12:41:52.036Z,48
2022-11-14T12:44:22.531Z,59
2022-11-14T12:46:55.992Z,48
2022-11-14T12:49:29.289Z,48
2022-11-14T12:51:58.489Z,49
2022-11-14T12:54:29.558Z,48
2022-11-14T12:57:00.510Z,48
2022-11-14T12:59:31.106Z,49
2022-11-14T13:02:02.734Z,48
2022-11-14T13:04:34.106Z,50
2022-11-14T13:07:05.068Z,51
2022-11-14T13:09:35.676Z,53
2022-11-14T13:12:06.666Z,52
2022-11-14T13:14:41.115Z,50
2022-11-14T13:17:14.899Z,55
2022-11-14T13:19:45.980Z,49
2022-11-14T13:22:16.848Z,60
2022-11-14T13:24:49.892Z,56
2022-11-14T13:27:20.763Z,61
2022-11-14T13:29:50.952Z,52
2022-11-14T13:32:22.140Z,46
2022-11-14T13:34:54.063Z,56
2022-11-14T13:37:24.909Z,57
2022-11-14T13:39:55.532Z,52
2022-11-14T13:42:27.268Z,52
2022-11-14T13:44:58.822Z,56
2022-11-14T13:47:30.138Z,55
2022-11-14T13:50:01.804Z,56
2022-11-14T13:52:34.176Z,66
2022-11-14T13:55:05.781Z,64
2022-11-14T13:57:37.316Z,56
2022-11-14T14:00:11.581Z,51
2022-11-14T14:02:40.929Z,45
2022-11-14T14:05:11.623Z,52
2022-11-14T14:07:43.214Z,63
2022-11-14T14:10:16.600Z,46
2022-11-14T14:12:47.222Z,56
2022-11-14T14:15:18.459Z,54
2022-11-14T14:17:51.536Z,48
2022-11-14T14:20:23.649Z,66
2022-11-14T14:22:56.201Z,49
2022-11-14T14:25:26.921Z,52
2022-11-14T14:27:56.760Z,62
2022-11-14T14:30:26.249Z,54
2022-11-14T14:32:56.940Z,46
2022-11-14T14:35:40.576Z,50
2022-11-14T14:38:08.710Z,56
2022-11-14T14:40:39.911Z,48
2022-11-14T14:43:11.954Z,44
2022-11-14T14:45:43.975Z,51
2022-11-14T14:48:15.408Z,49
2022-11-14T14:50:47.497Z,53
2022-11-14T14:53:18.517Z,53
2022-11-14T14:55:49.606Z,52
2022-11-14T14:58:22.529Z,51
2022-11-14T15:00:51.950Z,48
2022-11-14T15:03:22.812Z,57
2022-11-14T15:05:53.682Z,50
2022-11-14T15:08:23.225Z,60
2022-11-14T15:10:55.345Z,54
2022-11-14T15:13:26.841Z,59
2022-11-14T15:15:59.040Z,56
2022-11-14T15:18:38.475Z,53
2022-11-14T15:21:07.749Z,56
2022-11-14T15:23:38.608Z,52
2022-11-14T15:26:09.230Z,52
2022-11-14T15:28:40.610Z,56
2022-11-14T15:31:11.927Z,54
2022-11-14T15:33:50.831Z,54
2022-11-14T15:36:23.409Z,57
2022-11-14T15:38:54.536Z,53
2022-11-14T15:41:26.599Z,70
2022-11-14T15:43:59.746Z,75
2022-11-14T15:46:31.421Z,65
2022-11-14T15:49:02.730Z,60
2022-11-14T15:51:33.851Z,61
2022-11-14T15:54:05.607Z,68
2022-11-14T15:56:38.826Z,57
2022-11-14T15:59:13.904Z,57
2022-11-14T16:01:45.597Z,56
2022-11-14T16:04:16.970Z,56
2022-11-14T16:06:48.638Z,53
2022-11-14T16:09:20.471Z,57
2022-11-14T16:11:55.550Z,48
2022-11-14T16:14:26.835Z,59
2022-11-14T16:17:00.587Z,60
2022-11-14T16:19:32.133Z,58
2022-11-14T16:22:03.302Z,57
2022-11-14T16:24:34.570Z,64
2022-11-14T16:27:06.445Z,60
2022-11-14T16:29:40.148Z,56
2022-11-14T16:32:13.059Z,64
2022-11-14T16:34:48.541Z,72
2022-11-14T16:37:19.962Z,76
2022-11-14T16:39:53.023Z,132
2022-11-14T16:42:24.847Z,82
2022-11-14T16:44:56.424Z,77
2022-11-14T16:47:29.147Z,68
2022-11-14T16:50:00.214Z,66
2022-11-14T16:52:30.896Z,61
2022-11-14T16:55:02.740Z,59
2022-11-14T16:57:33.956Z,53
2022-11-14T17:00:05.147Z,53
2022-11-14T17:02:36.583Z,59
2022-11-14T17:05:07.849Z,60
2022-11-14T17:07:39.117Z,53
2022-11-14T17:10:10.429Z,60
2022-11-14T17:12:42.301Z,52
2022-11-14T17:15:16.169Z,49
2022-11-14T17:17:50.004Z,53
2022-11-14T17:20:21.323Z,56
2022-11-14T17:22:52.281Z,52
2022-11-14T17:25:23.451Z,67
2022-11-14T17:27:54.949Z,58
2022-11-14T17:30:27.471Z,68
2022-11-14T17:33:00.494Z,68
2022-11-14T17:35:31.632Z,73
2022-11-14T17:38:02.609Z,66
2022-11-14T17:40:33.965Z,71
2022-11-14T17:43:06.615Z,63
2022-11-14T17:45:41.029Z,66
2022-11-14T17:48:10.354Z,62
2022-11-14T17:50:41.498Z,68
2022-11-14T17:53:14.964Z,76
2022-11-14T17:55:46.819Z,76
2022-11-14T17:58:16.411Z,71
2022-11-14T18:00:49.398Z,63
2022-11-14T18:03:20.622Z,68
2022-11-14T18:05:51.432Z,65
2022-11-14T18:08:22.425Z,64
2022-11-14T18:10:53.754Z,64
2022-11-14T18:13:24.862Z,64
2022-11-14T18:15:56.245Z,68
2022-11-14T18:18:27.176Z,70
2022-11-14T18:21:01.090Z,72
2022-11-14T18:23:33.765Z,68
2022-11-14T18:26:10.272Z,65
2022-11-14T18:28:42.719Z,68
2022-11-14T18:31:14.542Z,68
2022-11-14T18:33:47.817Z,67
2022-11-14T18:36:20.033Z,67
2022-11-14T18:38:51.903Z,77
2022-11-14T18:41:22.832Z,74
2022-11-14T18:43:54.105Z,74
2022-11-14T18:46:25.277Z,68
2022-11-14T18:49:00.459Z,76
2022-11-14T18:51:31.568Z,68
2022-11-14T18:54:03.994Z,73
2022-11-14T18:56:35.489Z,70
2022-11-14T18:59:06.523Z,68
2022-11-14T19:01:37.603Z,68
2022-11-14T19:04:14.817Z,66
2022-11-14T19:06:46.011Z,72
2022-11-14T19:09:18.948Z,75
2022-11-14T19:11:54.624Z,72
2022-11-14T19:14:29.192Z,69
2022-11-14T19:17:04.053Z,69
2022-11-14T19:19:36.733Z,67
2022-11-14T19:22:07.880Z,76
2022-11-14T19:24:40.993Z,68
2022-11-14T19:27:14.571Z,62
2022-11-14T19:29:49.891Z,68
2022-11-14T19:32:21.370Z,67
2022-11-14T19:34:52.674Z,69
2022-11-14T19:37:24.862Z,73
2022-11-14T19:39:56.084Z,70
2022-11-14T19:42:27.000Z,65
2022-11-14T19:44:59.150Z,67
2022-11-14T19:47:29.960Z,69
2022-11-14T19:50:00.784Z,68
2022-11-14T19:52:31.595Z,78
2022-11-14T19:55:03.896Z,73
2022-11-14T19:57:37.709Z,67
2022-11-14T20:00:09.875Z,76
2022-11-14T20:02:44.653Z,69
2022-11-14T20:05:15.850Z,71
2022-11-14T20:07:48.945Z,73
2022-11-14T20:10:20.077Z,65
2022-11-14T20:12:51.526Z,73
2022-11-14T20:15:22.623Z,75
2022-11-14T20:17:53.677Z,67
2022-11-14T20:20:25.995Z,65
2022-11-14T20:22:56.953Z,67
2022-11-14T20:25:32.145Z,68
2022-11-14T20:28:04.840Z,70
2022-11-14T20:30:37.902Z,68
2022-11-14T20:33:10.414Z,69
2022-11-14T20:35:41.798Z,73
2022-11-14T20:38:15.500Z,64
2022-11-14T20:40:47.238Z,77
2022-11-14T20:43:19.570Z,72
2022-11-14T20:45:54.116Z,80
2022-11-14T20:48:27.826Z,74
2022-11-14T20:50:59.469Z,67
2022-11-14T20:53:31.446Z,71
2022-11-14T20:56:02.808Z,72
2022-11-14T20:58:35.120Z,64
2022-11-14T21:01:07.899Z,68
2022-11-14T21:03:40.842Z,68
2022-11-14T21:06:11.858Z,64
2022-11-14T21:08:45.222Z,63
2022-11-14T21:11:16.976Z,63
2022-11-14T21:13:47.781Z,64
2022-11-14T21:16:18.944Z,67
2022-11-14T21:18:50.376Z,62
2022-11-14T21:21:22.449Z,61
2022-11-14T21:23:53.923Z,138
2022-11-14T21:26:26.504Z,91
2022-11-14T21:28:59.688Z,113
2022-11-14T21:31:37.097Z,84
2022-11-14T21:34:10.511Z,76
2022-11-14T21:36:47.017Z,64
2022-11-14T21:39:18.043Z,64
2022-11-14T21:41:49.057Z,60
2022-11-14T21:44:21.852Z,64
2022-11-14T21:46:56.027Z,60
2022-11-14T21:49:32.083Z,60
2022-11-14T21:52:04.365Z,64
2022-11-14T21:54:39.144Z,60
2022-11-14T21:57:11.300Z,58
2022-11-14T21:59:43.111Z,57
2022-11-14T22:02:18.717Z,60
2022-11-14T22:04:50.944Z,60
2022-11-14T22:07:28.575Z,57
2022-11-14T22:10:00.309Z,57
2022-11-14T22:12:33.832Z,56
2022-11-14T22:15:07.825Z,60
2022-11-14T22:17:41.930Z,60
2022-11-14T22:20:16.145Z,60
2022-11-14T22:22:48.206Z,55
2022-11-14T22:25:19.584Z,61
2022-11-14T22:27:51.091Z,60
2022-11-14T22:30:22.242Z,58
2022-11-14T22:32:56.287Z,68
2022-11-14T22:35:29.493Z,60
2022-11-14T22:38:04.310Z,61
2022-11-14T22:40:37.062Z,59
2022-11-14T22:43:09.134Z,64
2022-11-14T22:45:40.370Z,62
2022-11-14T22:48:16.573Z,61
2022-11-14T22:50:51.737Z,57
2022-11-14T22:53:26.591Z,63
2022-11-14T22:55:58.259Z,60
2022-11-14T22:58:29.720Z,56
2022-11-14T23:01:01.814Z,62
2022-11-14T23:03:34.759Z,58
2022-11-14T23:06:05.648Z,58
2022-11-14T23:08:45.433Z,60
2022-11-14T23:11:17.909Z,63
2022-11-14T23:13:48.901Z,57
2022-11-14T23:16:19.372Z,62
2022-11-14T23:18:49.930Z,64
2022-11-14T23:21:19.919Z,56
2022-11-14T23:23:50.922Z,61
2022-11-14T23:26:21.385Z,60
2022-11-14T23:28:54.999Z,59
2022-11-14T23:31:30.041Z,60
2022-11-14T23:34:00.491Z,60
2022-11-14T23:36:32.134Z,56
2022-11-14T23:39:03.327Z,61
2022-11-14T23:41:37.704Z,61
2022-11-14T23:44:14.533Z,62
2022-11-14T23:46:50.184Z,56
2022-11-14T23:49:21.894Z,56
2022-11-14T23:51:55.388Z,56
2022-11-14T23:57:18.479Z,56
2022-11-14T23:59:53.003Z,60
